CheckWX is a tool to help pilots better visualize weather data.  It is not intended as a substitute for an official pre-flight weather briefing.

08:44:22 UTC

KAAS METAR
Taylor County Airport
Campbellsville, Kentucky, USA
Current

9 mins ago

KAAS 190835Z AUTO 18008KT 10SM CLR 21/17 A2996 RMK AO1
Observed
May-19 @ 08:35 UTC
Wind
  • 180° at 8 KTS
Visibility
10 SM
Flight Rules
VFR
Cloud Levels
  • Clear skies
Temperature
21°C / 70°F
Dewpoint
17°C / 63°F
Humidity
78%
Altimeter
29.96" Hg
Pressure
1014.52 hPa
Previous

29 mins ago

KAAS 190815Z AUTO 18007KT 10SM CLR 21/17 A2996 RMK AO1
Observed
May-19 @ 08:15 UTC
Wind
  • 180° at 7 KTS
Visibility
10 SM
Flight Rules
VFR
Cloud Levels
  • Clear skies
Temperature
21°C / 70°F
Dewpoint
17°C / 63°F
Humidity
78%
Altimeter
29.96" Hg
Pressure
1014.52 hPa
Previous

49 mins ago

KAAS 190755Z AUTO 18008KT 10SM CLR 21/17 A2996 RMK AO1
Observed
May-19 @ 07:55 UTC
Wind
  • 180° at 8 KTS
Visibility
10 SM
Flight Rules
VFR
Cloud Levels
  • Clear skies
Temperature
21°C / 70°F
Dewpoint
17°C / 63°F
Humidity
78%
Altimeter
29.96" Hg
Pressure
1014.52 hPa